sensor_id;sensor_type;location;lat;lon;timestamp;P1;durP1;ratioP1;P2;durP2;ratioP2
27857;SDS011;16852;51.446;6.528;2023-03-23T00:00:29;4.70;;;2.03;;
27857;SDS011;16852;51.446;6.528;2023-03-23T00:02:30;4.22;;;2.05;;
27857;SDS011;16852;51.446;6.528;2023-03-23T00:04:35;3.72;;;2.15;;
27857;SDS011;16852;51.446;6.528;2023-03-23T00:06:36;5.13;;;2.10;;
27857;SDS011;16852;51.446;6.528;2023-03-23T00:08:38;2.80;;;1.98;;
27857;SDS011;16852;51.446;6.528;2023-03-23T00:10:45;4.72;;;2.30;;
27857;SDS011;16852;51.446;6.528;2023-03-23T00:12:49;7.93;;;2.47;;
27857;SDS011;16852;51.446;6.528;2023-03-23T00:14:50;3.47;;;2.08;;
27857;SDS011;16852;51.446;6.528;2023-03-23T00:16:53;3.67;;;2.28;;
27857;SDS011;16852;51.446;6.528;2023-03-23T00:18:55;3.33;;;1.90;;
27857;SDS011;16852;51.446;6.528;2023-03-23T00:21:00;3.83;;;2.00;;
27857;SDS011;16852;51.446;6.528;2023-03-23T00:23:03;7.10;;;2.13;;
27857;SDS011;16852;51.446;6.528;2023-03-23T00:25:04;3.92;;;2.35;;
27857;SDS011;16852;51.446;6.528;2023-03-23T00:27:05;3.25;;;1.70;;
27857;SDS011;16852;51.446;6.528;2023-03-23T00:29:07;3.33;;;1.90;;
27857;SDS011;16852;51.446;6.528;2023-03-23T00:31:14;3.58;;;2.30;;
27857;SDS011;16852;51.446;6.528;2023-03-23T00:33:15;4.22;;;2.30;;
27857;SDS011;16852;51.446;6.528;2023-03-23T00:35:16;4.20;;;2.05;;
27857;SDS011;16852;51.446;6.528;2023-03-23T00:37:17;4.95;;;1.83;;
27857;SDS011;16852;51.446;6.528;2023-03-23T00:39:18;2.28;;;1.73;;
27857;SDS011;16852;51.446;6.528;2023-03-23T00:41:19;2.97;;;1.95;;
27857;SDS011;16852;51.446;6.528;2023-03-23T00:43:19;3.15;;;1.98;;
27857;SDS011;16852;51.446;6.528;2023-03-23T00:45:20;4.35;;;2.30;;
27857;SDS011;16852;51.446;6.528;2023-03-23T00:47:21;3.72;;;2.10;;
27857;SDS011;16852;51.446;6.528;2023-03-23T00:49:23;3.08;;;1.95;;
27857;SDS011;16852;51.446;6.528;2023-03-23T00:51:25;4.95;;;2.30;;
27857;SDS011;16852;51.446;6.528;2023-03-23T00:53:26;4.00;;;2.35;;
27857;SDS011;16852;51.446;6.528;2023-03-23T00:55:26;5.50;;;2.50;;
27857;SDS011;16852;51.446;6.528;2023-03-23T00:57:27;3.47;;;2.17;;
27857;SDS011;16852;51.446;6.528;2023-03-23T00:59:27;3.00;;;2.17;;
27857;SDS011;16852;51.446;6.528;2023-03-23T01:01:28;6.63;;;2.20;;
27857;SDS011;16852;51.446;6.528;2023-03-23T01:03:29;6.25;;;2.38;;
27857;SDS011;16852;51.446;6.528;2023-03-23T01:05:34;3.80;;;2.00;;
27857;SDS011;16852;51.446;6.528;2023-03-23T01:07:35;4.13;;;2.30;;
27857;SDS011;16852;51.446;6.528;2023-03-23T01:09:36;5.10;;;2.40;;
27857;SDS011;16852;51.446;6.528;2023-03-23T01:11:40;5.63;;;2.33;;
27857;SDS011;16852;51.446;6.528;2023-03-23T01:13:42;4.75;;;2.35;;
27857;SDS011;16852;51.446;6.528;2023-03-23T01:15:43;2.67;;;2.08;;
27857;SDS011;16852;51.446;6.528;2023-03-23T01:17:44;3.35;;;1.88;;
27857;SDS011;16852;51.446;6.528;2023-03-23T01:19:45;3.17;;;1.92;;
27857;SDS011;16852;51.446;6.528;2023-03-23T01:21:45;4.22;;;2.20;;
27857;SDS011;16852;51.446;6.528;2023-03-23T01:23:46;4.55;;;2.47;;
27857;SDS011;16852;51.446;6.528;2023-03-23T01:25:47;5.60;;;2.13;;
27857;SDS011;16852;51.446;6.528;2023-03-23T01:27:49;5.10;;;2.50;;
27857;SDS011;16852;51.446;6.528;2023-03-23T01:29:50;4.60;;;2.15;;
27857;SDS011;16852;51.446;6.528;2023-03-23T01:31:50;3.80;;;2.47;;
27857;SDS011;16852;51.446;6.528;2023-03-23T01:33:51;4.28;;;2.40;;
27857;SDS011;16852;51.446;6.528;2023-03-23T01:35:52;4.72;;;2.03;;
27857;SDS011;16852;51.446;6.528;2023-03-23T01:37:53;4.68;;;2.35;;
27857;SDS011;16852;51.446;6.528;2023-03-23T01:39:57;5.57;;;2.42;;
27857;SDS011;16852;51.446;6.528;2023-03-23T01:41:58;4.25;;;2.17;;
27857;SDS011;16852;51.446;6.528;2023-03-23T01:44:03;3.55;;;2.00;;
27857;SDS011;16852;51.446;6.528;2023-03-23T01:46:08;4.95;;;2.33;;
27857;SDS011;16852;51.446;6.528;2023-03-23T01:48:22;4.43;;;2.47;;
27857;SDS011;16852;51.446;6.528;2023-03-23T01:50:27;3.22;;;2.00;;
27857;SDS011;16852;51.446;6.528;2023-03-23T01:52:29;2.78;;;2.03;;
27857;SDS011;16852;51.446;6.528;2023-03-23T01:54:30;3.05;;;2.33;;
27857;SDS011;16852;51.446;6.528;2023-03-23T01:56:36;4.43;;;2.20;;
27857;SDS011;16852;51.446;6.528;2023-03-23T01:58:45;3.58;;;2.20;;
27857;SDS011;16852;51.446;6.528;2023-03-23T02:00:46;3.13;;;2.10;;
27857;SDS011;16852;51.446;6.528;2023-03-23T02:02:48;3.15;;;2.10;;
27857;SDS011;16852;51.446;6.528;2023-03-23T02:04:50;6.25;;;2.20;;
27857;SDS011;16852;51.446;6.528;2023-03-23T02:06:51;2.83;;;2.08;;
27857;SDS011;16852;51.446;6.528;2023-03-23T02:08:54;2.90;;;1.90;;
27857;SDS011;16852;51.446;6.528;2023-03-23T02:10:55;3.67;;;2.33;;
27857;SDS011;16852;51.446;6.528;2023-03-23T02:12:56;3.95;;;2.47;;
27857;SDS011;16852;51.446;6.528;2023-03-23T02:14:58;3.42;;;2.05;;
27857;SDS011;16852;51.446;6.528;2023-03-23T02:19:23;2.38;;;2.03;;
27857;SDS011;16852;51.446;6.528;2023-03-23T02:26:03;9.10;;;2.38;;
27857;SDS011;16852;51.446;6.528;2023-03-23T02:31:14;3.13;;;2.17;;
27857;SDS011;16852;51.446;6.528;2023-03-23T02:35:46;5.95;;;2.33;;
27857;SDS011;16852;51.446;6.528;2023-03-23T02:38:16;3.03;;;2.10;;
27857;SDS011;16852;51.446;6.528;2023-03-23T02:40:50;3.72;;;2.33;;
27857;SDS011;16852;51.446;6.528;2023-03-23T02:42:47;2.75;;;2.00;;
27857;SDS011;16852;51.446;6.528;2023-03-23T02:44:51;5.63;;;2.10;;
27857;SDS011;16852;51.446;6.528;2023-03-23T02:46:53;3.90;;;2.50;;
27857;SDS011;16852;51.446;6.528;2023-03-23T02:48:54;3.30;;;2.10;;
27857;SDS011;16852;51.446;6.528;2023-03-23T02:50:57;4.47;;;2.60;;
27857;SDS011;16852;51.446;6.528;2023-03-23T02:53:00;4.18;;;2.40;;
27857;SDS011;16852;51.446;6.528;2023-03-23T02:55:02;3.63;;;2.28;;
27857;SDS011;16852;51.446;6.528;2023-03-23T02:57:04;2.25;;;1.90;;
27857;SDS011;16852;51.446;6.528;2023-03-23T02:59:05;3.88;;;1.98;;
27857;SDS011;16852;51.446;6.528;2023-03-23T03:03:26;2.60;;;2.10;;
27857;SDS011;16852;51.446;6.528;2023-03-23T03:09:59;3.03;;;2.20;;
27857;SDS011;16852;51.446;6.528;2023-03-23T03:12:11;3.58;;;2.40;;
27857;SDS011;16852;51.446;6.528;2023-03-23T03:14:22;5.70;;;1.98;;
27857;SDS011;16852;51.446;6.528;2023-03-23T03:16:41;7.68;;;2.35;;
27857;SDS011;16852;51.446;6.528;2023-03-23T03:19:02;2.65;;;2.03;;
27857;SDS011;16852;51.446;6.528;2023-03-23T03:23:20;3.80;;;2.40;;
27857;SDS011;16852;51.446;6.528;2023-03-23T03:25:25;2.90;;;2.33;;
27857;SDS011;16852;51.446;6.528;2023-03-23T03:27:27;4.78;;;2.42;;
27857;SDS011;16852;51.446;6.528;2023-03-23T03:29:30;3.70;;;2.17;;
27857;SDS011;16852;51.446;6.528;2023-03-23T03:31:38;3.25;;;1.85;;
27857;SDS011;16852;51.446;6.528;2023-03-23T03:33:45;4.25;;;1.90;;
27857;SDS011;16852;51.446;6.528;2023-03-23T03:35:46;3.17;;;2.03;;
27857;SDS011;16852;51.446;6.528;2023-03-23T03:37:48;5.30;;;2.25;;
27857;SDS011;16852;51.446;6.528;2023-03-23T03:39:50;3.17;;;1.70;;
27857;SDS011;16852;51.446;6.528;2023-03-23T03:41:51;2.95;;;2.00;;
27857;SDS011;16852;51.446;6.528;2023-03-23T03:43:52;3.72;;;2.10;;
27857;SDS011;16852;51.446;6.528;2023-03-23T03:45:52;4.43;;;2.10;;
27857;SDS011;16852;51.446;6.528;2023-03-23T03:47:53;3.22;;;1.70;;
27857;SDS011;16852;51.446;6.528;2023-03-23T03:49:53;4.53;;;2.20;;
27857;SDS011;16852;51.446;6.528;2023-03-23T03:51:54;2.42;;;1.95;;
27857;SDS011;16852;51.446;6.528;2023-03-23T03:53:55;2.58;;;1.55;;
27857;SDS011;16852;51.446;6.528;2023-03-23T03:55:55;3.33;;;2.08;;
27857;SDS011;16852;51.446;6.528;2023-03-23T03:57:59;5.53;;;2.22;;
27857;SDS011;16852;51.446;6.528;2023-03-23T04:00:00;4.47;;;2.38;;
27857;SDS011;16852;51.446;6.528;2023-03-23T04:02:04;2.35;;;1.80;;
27857;SDS011;16852;51.446;6.528;2023-03-23T04:04:04;2.67;;;1.77;;
27857;SDS011;16852;51.446;6.528;2023-03-23T04:06:07;3.17;;;1.70;;
27857;SDS011;16852;51.446;6.528;2023-03-23T04:08:08;3.03;;;1.85;;
27857;SDS011;16852;51.446;6.528;2023-03-23T04:10:09;2.25;;;1.65;;
27857;SDS011;16852;51.446;6.528;2023-03-23T04:12:12;2.85;;;2.17;;
27857;SDS011;16852;51.446;6.528;2023-03-23T04:14:13;2.47;;;1.80;;
27857;SDS011;16852;51.446;6.528;2023-03-23T04:16:14;2.67;;;2.13;;
27857;SDS011;16852;51.446;6.528;2023-03-23T04:18:16;4.68;;;1.95;;
27857;SDS011;16852;51.446;6.528;2023-03-23T04:20:17;3.65;;;2.15;;
27857;SDS011;16852;51.446;6.528;2023-03-23T04:22:18;2.78;;;1.55;;
27857;SDS011;16852;51.446;6.528;2023-03-23T04:24:19;2.70;;;1.63;;
27857;SDS011;16852;51.446;6.528;2023-03-23T04:26:21;4.05;;;2.10;;
27857;SDS011;16852;51.446;6.528;2023-03-23T04:28:22;2.25;;;1.77;;
27857;SDS011;16852;51.446;6.528;2023-03-23T04:30:24;4.20;;;2.00;;
27857;SDS011;16852;51.446;6.528;2023-03-23T04:32:28;2.90;;;1.77;;
27857;SDS011;16852;51.446;6.528;2023-03-23T04:34:30;2.45;;;1.67;;
27857;SDS011;16852;51.446;6.528;2023-03-23T04:36:32;3.35;;;1.92;;
27857;SDS011;16852;51.446;6.528;2023-03-23T04:38:35;4.78;;;2.00;;
27857;SDS011;16852;51.446;6.528;2023-03-23T04:40:36;2.63;;;1.80;;
27857;SDS011;16852;51.446;6.528;2023-03-23T04:42:41;3.70;;;2.10;;
27857;SDS011;16852;51.446;6.528;2023-03-23T04:44:46;2.20;;;1.80;;
27857;SDS011;16852;51.446;6.528;2023-03-23T04:46:55;4.45;;;1.95;;
27857;SDS011;16852;51.446;6.528;2023-03-23T04:48:56;2.13;;;1.52;;
27857;SDS011;16852;51.446;6.528;2023-03-23T04:51:01;4.90;;;1.90;;
27857;SDS011;16852;51.446;6.528;2023-03-23T04:53:04;3.70;;;2.00;;
27857;SDS011;16852;51.446;6.528;2023-03-23T04:55:05;4.82;;;1.80;;
27857;SDS011;16852;51.446;6.528;2023-03-23T04:57:07;2.97;;;1.75;;
27857;SDS011;16852;51.446;6.528;2023-03-23T04:59:08;4.25;;;1.60;;
27857;SDS011;16852;51.446;6.528;2023-03-23T05:01:08;2.70;;;1.90;;
27857;SDS011;16852;51.446;6.528;2023-03-23T05:03:09;2.30;;;1.80;;
27857;SDS011;16852;51.446;6.528;2023-03-23T05:05:11;2.43;;;1.60;;
27857;SDS011;16852;51.446;6.528;2023-03-23T05:07:12;3.10;;;2.05;;
27857;SDS011;16852;51.446;6.528;2023-03-23T05:09:13;3.70;;;1.88;;
27857;SDS011;16852;51.446;6.528;2023-03-23T05:11:14;2.63;;;1.80;;
27857;SDS011;16852;51.446;6.528;2023-03-23T05:13:14;2.85;;;1.70;;
27857;SDS011;16852;51.446;6.528;2023-03-23T05:15:15;4.55;;;1.88;;
27857;SDS011;16852;51.446;6.528;2023-03-23T05:17:16;3.72;;;1.88;;
27857;SDS011;16852;51.446;6.528;2023-03-23T05:19:18;3.83;;;2.03;;
27857;SDS011;16852;51.446;6.528;2023-03-23T05:21:19;3.42;;;1.77;;
27857;SDS011;16852;51.446;6.528;2023-03-23T05:23:20;3.50;;;1.67;;
27857;SDS011;16852;51.446;6.528;2023-03-23T05:25:24;2.05;;;1.48;;
27857;SDS011;16852;51.446;6.528;2023-03-23T05:27:26;3.83;;;2.07;;
27857;SDS011;16852;51.446;6.528;2023-03-23T05:29:27;2.40;;;1.70;;
27857;SDS011;16852;51.446;6.528;2023-03-23T05:31:30;3.70;;;2.10;;
27857;SDS011;16852;51.446;6.528;2023-03-23T05:33:30;4.55;;;2.05;;
27857;SDS011;16852;51.446;6.528;2023-03-23T05:35:31;1.83;;;1.63;;
27857;SDS011;16852;51.446;6.528;2023-03-23T05:37:32;3.22;;;1.80;;
27857;SDS011;16852;51.446;6.528;2023-03-23T05:39:32;2.13;;;1.65;;
27857;SDS011;16852;51.446;6.528;2023-03-23T05:41:34;3.03;;;1.70;;
27857;SDS011;16852;51.446;6.528;2023-03-23T05:43:34;3.58;;;1.95;;
27857;SDS011;16852;51.446;6.528;2023-03-23T05:45:36;4.13;;;2.07;;
27857;SDS011;16852;51.446;6.528;2023-03-23T05:47:38;3.95;;;1.65;;
27857;SDS011;16852;51.446;6.528;2023-03-23T05:49:39;3.20;;;1.75;;
27857;SDS011;16852;51.446;6.528;2023-03-23T05:51:40;6.00;;;1.73;;
27857;SDS011;16852;51.446;6.528;2023-03-23T05:53:41;2.78;;;1.88;;
27857;SDS011;16852;51.446;6.528;2023-03-23T05:55:41;4.28;;;1.60;;
27857;SDS011;16852;51.446;6.528;2023-03-23T05:57:42;7.28;;;1.77;;
27857;SDS011;16852;51.446;6.528;2023-03-23T05:59:43;4.53;;;1.60;;
27857;SDS011;16852;51.446;6.528;2023-03-23T06:01:43;4.63;;;1.67;;
27857;SDS011;16852;51.446;6.528;2023-03-23T06:03:44;3.13;;;1.80;;
27857;SDS011;16852;51.446;6.528;2023-03-23T06:05:45;6.22;;;2.33;;
27857;SDS011;16852;51.446;6.528;2023-03-23T06:07:46;2.53;;;1.65;;
27857;SDS011;16852;51.446;6.528;2023-03-23T06:09:47;3.55;;;1.77;;
27857;SDS011;16852;51.446;6.528;2023-03-23T06:11:49;5.47;;;2.17;;
27857;SDS011;16852;51.446;6.528;2023-03-23T06:13:50;4.68;;;1.95;;
27857;SDS011;16852;51.446;6.528;2023-03-23T06:15:54;4.32;;;1.80;;
27857;SDS011;16852;51.446;6.528;2023-03-23T06:18:01;2.95;;;1.80;;
27857;SDS011;16852;51.446;6.528;2023-03-23T06:20:03;3.65;;;2.17;;
27857;SDS011;16852;51.446;6.528;2023-03-23T06:22:10;8.98;;;2.00;;
27857;SDS011;16852;51.446;6.528;2023-03-23T06:24:10;3.17;;;1.70;;
27857;SDS011;16852;51.446;6.528;2023-03-23T06:26:11;4.00;;;1.83;;
27857;SDS011;16852;51.446;6.528;2023-03-23T06:28:16;5.82;;;1.90;;
27857;SDS011;16852;51.446;6.528;2023-03-23T06:30:17;4.53;;;1.52;;
27857;SDS011;16852;51.446;6.528;2023-03-23T06:32:17;4.50;;;2.13;;
27857;SDS011;16852;51.446;6.528;2023-03-23T06:34:18;4.18;;;1.92;;
27857;SDS011;16852;51.446;6.528;2023-03-23T06:36:19;3.63;;;1.60;;
27857;SDS011;16852;51.446;6.528;2023-03-23T06:38:20;6.00;;;1.98;;
27857;SDS011;16852;51.446;6.528;2023-03-23T06:40:20;4.60;;;1.60;;
27857;SDS011;16852;51.446;6.528;2023-03-23T06:42:22;3.95;;;1.52;;
27857;SDS011;16852;51.446;6.528;2023-03-23T06:44:26;7.45;;;2.05;;
27857;SDS011;16852;51.446;6.528;2023-03-23T06:46:26;3.45;;;1.50;;
27857;SDS011;16852;51.446;6.528;2023-03-23T06:48:27;6.22;;;2.25;;
27857;SDS011;16852;51.446;6.528;2023-03-23T06:50:28;5.65;;;1.98;;
27857;SDS011;16852;51.446;6.528;2023-03-23T06:52:28;3.33;;;1.67;;
27857;SDS011;16852;51.446;6.528;2023-03-23T06:54:29;3.85;;;2.05;;
27857;SDS011;16852;51.446;6.528;2023-03-23T06:56:30;4.68;;;1.63;;
27857;SDS011;16852;51.446;6.528;2023-03-23T06:58:31;4.63;;;1.85;;
27857;SDS011;16852;51.446;6.528;2023-03-23T07:00:32;5.93;;;1.85;;
27857;SDS011;16852;51.446;6.528;2023-03-23T07:02:33;5.45;;;2.00;;
27857;SDS011;16852;51.446;6.528;2023-03-23T07:04:34;7.47;;;1.75;;
27857;SDS011;16852;51.446;6.528;2023-03-23T07:06:35;5.05;;;1.90;;
27857;SDS011;16852;51.446;6.528;2023-03-23T07:08:36;4.65;;;1.63;;
27857;SDS011;16852;51.446;6.528;2023-03-23T07:10:36;4.05;;;1.60;;
27857;SDS011;16852;51.446;6.528;2023-03-23T07:12:38;6.30;;;2.25;;
27857;SDS011;16852;51.446;6.528;2023-03-23T07:14:39;6.47;;;2.28;;
27857;SDS011;16852;51.446;6.528;2023-03-23T07:16:40;4.97;;;2.05;;
27857;SDS011;16852;51.446;6.528;2023-03-23T07:18:41;3.13;;;1.27;;
27857;SDS011;16852;51.446;6.528;2023-03-23T07:20:41;5.20;;;2.13;;
27857;SDS011;16852;51.446;6.528;2023-03-23T07:22:42;6.00;;;2.05;;
27857;SDS011;16852;51.446;6.528;2023-03-23T07:24:43;4.78;;;2.20;;
27857;SDS011;16852;51.446;6.528;2023-03-23T07:26:43;7.60;;;2.20;;
27857;SDS011;16852;51.446;6.528;2023-03-23T07:28:44;4.78;;;2.28;;
27857;SDS011;16852;51.446;6.528;2023-03-23T07:30:46;3.63;;;1.88;;
27857;SDS011;16852;51.446;6.528;2023-03-23T07:32:47;6.45;;;2.05;;
27857;SDS011;16852;51.446;6.528;2023-03-23T07:34:47;6.03;;;1.98;;
27857;SDS011;16852;51.446;6.528;2023-03-23T07:36:48;3.78;;;1.30;;
27857;SDS011;16852;51.446;6.528;2023-03-23T07:38:48;4.07;;;1.58;;
27857;SDS011;16852;51.446;6.528;2023-03-23T07:40:49;5.03;;;1.92;;
27857;SDS011;16852;51.446;6.528;2023-03-23T07:42:54;6.72;;;1.55;;
27857;SDS011;16852;51.446;6.528;2023-03-23T07:44:56;3.22;;;1.77;;
27857;SDS011;16852;51.446;6.528;2023-03-23T07:46:56;2.60;;;1.63;;
27857;SDS011;16852;51.446;6.528;2023-03-23T07:48:57;4.53;;;1.65;;
27857;SDS011;16852;51.446;6.528;2023-03-23T07:50:58;4.65;;;1.77;;
27857;SDS011;16852;51.446;6.528;2023-03-23T07:52:59;4.20;;;1.55;;
27857;SDS011;16852;51.446;6.528;2023-03-23T07:54:59;3.97;;;1.48;;
27857;SDS011;16852;51.446;6.528;2023-03-23T07:57:04;4.97;;;1.58;;
27857;SDS011;16852;51.446;6.528;2023-03-23T07:59:06;8.85;;;2.13;;
27857;SDS011;16852;51.446;6.528;2023-03-23T08:01:07;4.72;;;1.50;;
27857;SDS011;16852;51.446;6.528;2023-03-23T08:03:08;4.32;;;1.48;;
27857;SDS011;16852;51.446;6.528;2023-03-23T08:05:09;5.60;;;1.17;;
27857;SDS011;16852;51.446;6.528;2023-03-23T08:07:10;3.58;;;1.65;;
27857;SDS011;16852;51.446;6.528;2023-03-23T08:09:12;2.85;;;1.35;;
27857;SDS011;16852;51.446;6.528;2023-03-23T08:11:13;3.85;;;1.65;;
27857;SDS011;16852;51.446;6.528;2023-03-23T08:13:15;7.18;;;1.60;;
27857;SDS011;16852;51.446;6.528;2023-03-23T08:15:15;7.47;;;1.70;;
27857;SDS011;16852;51.446;6.528;2023-03-23T08:17:16;5.40;;;1.60;;
27857;SDS011;16852;51.446;6.528;2023-03-23T08:19:17;5.45;;;1.48;;
27857;SDS011;16852;51.446;6.528;2023-03-23T08:21:17;3.15;;;1.30;;
27857;SDS011;16852;51.446;6.528;2023-03-23T08:23:18;3.95;;;1.63;;
27857;SDS011;16852;51.446;6.528;2023-03-23T08:25:19;4.85;;;1.90;;
27857;SDS011;16852;51.446;6.528;2023-03-23T08:27:19;3.47;;;1.50;;
27857;SDS011;16852;51.446;6.528;2023-03-23T08:29:20;6.35;;;1.70;;
27857;SDS011;16852;51.446;6.528;2023-03-23T08:31:21;2.78;;;1.30;;
27857;SDS011;16852;51.446;6.528;2023-03-23T08:33:21;2.95;;;1.13;;
27857;SDS011;16852;51.446;6.528;2023-03-23T08:35:22;4.70;;;1.52;;
27857;SDS011;16852;51.446;6.528;2023-03-23T08:37:23;3.38;;;1.23;;
27857;SDS011;16852;51.446;6.528;2023-03-23T08:39:24;4.63;;;1.73;;
27857;SDS011;16852;51.446;6.528;2023-03-23T08:41:25;5.10;;;1.67;;
27857;SDS011;16852;51.446;6.528;2023-03-23T08:43:25;5.80;;;1.35;;
27857;SDS011;16852;51.446;6.528;2023-03-23T08:45:27;7.05;;;1.85;;
27857;SDS011;16852;51.446;6.528;2023-03-23T08:47:27;6.07;;;1.85;;
27857;SDS011;16852;51.446;6.528;2023-03-23T08:49:28;4.90;;;1.58;;
27857;SDS011;16852;51.446;6.528;2023-03-23T08:51:32;2.92;;;1.35;;
27857;SDS011;16852;51.446;6.528;2023-03-23T08:53:33;5.82;;;1.75;;
27857;SDS011;16852;51.446;6.528;2023-03-23T08:55:33;6.28;;;1.80;;
27857;SDS011;16852;51.446;6.528;2023-03-23T08:57:34;5.38;;;1.77;;
27857;SDS011;16852;51.446;6.528;2023-03-23T08:59:36;4.80;;;1.43;;
27857;SDS011;16852;51.446;6.528;2023-03-23T09:01:36;5.47;;;1.52;;
27857;SDS011;16852;51.446;6.528;2023-03-23T09:03:37;5.13;;;1.60;;
27857;SDS011;16852;51.446;6.528;2023-03-23T09:05:39;7.05;;;1.90;;
27857;SDS011;16852;51.446;6.528;2023-03-23T09:07:46;9.85;;;2.05;;
27857;SDS011;16852;51.446;6.528;2023-03-23T09:09:48;7.32;;;1.50;;
27857;SDS011;16852;51.446;6.528;2023-03-23T09:11:49;4.97;;;1.65;;
27857;SDS011;16852;51.446;6.528;2023-03-23T09:13:49;6.20;;;1.52;;
27857;SDS011;16852;51.446;6.528;2023-03-23T09:15:50;3.55;;;1.10;;
27857;SDS011;16852;51.446;6.528;2023-03-23T09:17:52;5.38;;;1.48;;
27857;SDS011;16852;51.446;6.528;2023-03-23T09:19:54;7.07;;;1.40;;
27857;SDS011;16852;51.446;6.528;2023-03-23T09:21:55;7.55;;;1.55;;
27857;SDS011;16852;51.446;6.528;2023-03-23T09:23:56;5.90;;;1.60;;
27857;SDS011;16852;51.446;6.528;2023-03-23T09:26:01;3.60;;;1.00;;
27857;SDS011;16852;51.446;6.528;2023-03-23T09:28:03;4.78;;;1.52;;
27857;SDS011;16852;51.446;6.528;2023-03-23T09:30:04;4.03;;;1.25;;
27857;SDS011;16852;51.446;6.528;2023-03-23T09:32:10;3.42;;;1.33;;
27857;SDS011;16852;51.446;6.528;2023-03-23T09:34:13;2.70;;;1.00;;
27857;SDS011;16852;51.446;6.528;2023-03-23T09:36:18;4.10;;;1.10;;
27857;SDS011;16852;51.446;6.528;2023-03-23T09:38:21;2.97;;;0.93;;
27857;SDS011;16852;51.446;6.528;2023-03-23T09:40:44;3.75;;;1.15;;
27857;SDS011;16852;51.446;6.528;2023-03-23T09:42:52;4.32;;;0.73;;
27857;SDS011;16852;51.446;6.528;2023-03-23T09:45:19;2.85;;;0.70;;
27857;SDS011;16852;51.446;6.528;2023-03-23T09:49:50;2.77;;;0.83;;
27857;SDS011;16852;51.446;6.528;2023-03-23T09:54:18;3.97;;;1.30;;
27857;SDS011;16852;51.446;6.528;2023-03-23T09:56:26;1.80;;;0.82;;
27857;SDS011;16852;51.446;6.528;2023-03-23T09:58:31;4.78;;;1.20;;
27857;SDS011;16852;51.446;6.528;2023-03-23T10:00:41;2.50;;;0.70;;
27857;SDS011;16852;51.446;6.528;2023-03-23T10:02:52;4.03;;;1.13;;
27857;SDS011;16852;51.446;6.528;2023-03-23T10:07:35;2.58;;;0.82;;
27857;SDS011;16852;51.446;6.528;2023-03-23T10:09:36;3.65;;;1.48;;
27857;SDS011;16852;51.446;6.528;2023-03-23T10:16:20;4.18;;;1.00;;
27857;SDS011;16852;51.446;6.528;2023-03-23T10:20:33;3.03;;;1.38;;
27857;SDS011;16852;51.446;6.528;2023-03-23T10:22:37;5.35;;;1.33;;
27857;SDS011;16852;51.446;6.528;2023-03-23T10:24:52;2.63;;;1.20;;
27857;SDS011;16852;51.446;6.528;2023-03-23T10:27:13;3.00;;;0.93;;
27857;SDS011;16852;51.446;6.528;2023-03-23T10:29:28;3.05;;;0.95;;
27857;SDS011;16852;51.446;6.528;2023-03-23T10:31:37;1.85;;;0.80;;
27857;SDS011;16852;51.446;6.528;2023-03-23T10:33:43;4.55;;;1.10;;
27857;SDS011;16852;51.446;6.528;2023-03-23T10:35:55;1.67;;;0.90;;
27857;SDS011;16852;51.446;6.528;2023-03-23T10:38:04;2.83;;;0.95;;
27857;SDS011;16852;51.446;6.528;2023-03-23T10:40:15;3.45;;;0.88;;
27857;SDS011;16852;51.446;6.528;2023-03-23T10:42:23;2.38;;;0.77;;
27857;SDS011;16852;51.446;6.528;2023-03-23T10:44:32;2.50;;;1.02;;
27857;SDS011;16852;51.446;6.528;2023-03-23T10:48:55;6.28;;;1.25;;
27857;SDS011;16852;51.446;6.528;2023-03-23T10:51:00;2.53;;;1.10;;
27857;SDS011;16852;51.446;6.528;2023-03-23T10:53:07;3.58;;;1.10;;
27857;SDS011;16852;51.446;6.528;2023-03-23T10:55:17;3.03;;;1.00;;
27857;SDS011;16852;51.446;6.528;2023-03-23T10:57:23;2.40;;;0.90;;
27857;SDS011;16852;51.446;6.528;2023-03-23T10:59:27;3.10;;;1.00;;
27857;SDS011;16852;51.446;6.528;2023-03-23T11:05:52;3.90;;;1.00;;
27857;SDS011;16852;51.446;6.528;2023-03-23T11:07:57;2.63;;;0.90;;
27857;SDS011;16852;51.446;6.528;2023-03-23T11:10:04;4.22;;;0.93;;
27857;SDS011;16852;51.446;6.528;2023-03-23T11:12:16;1.42;;;0.82;;
27857;SDS011;16852;51.446;6.528;2023-03-23T11:14:23;1.17;;;0.60;;
27857;SDS011;16852;51.446;6.528;2023-03-23T11:16:29;2.30;;;1.00;;
27857;SDS011;16852;51.446;6.528;2023-03-23T11:18:39;4.00;;;1.20;;
27857;SDS011;16852;51.446;6.528;2023-03-23T11:20:43;1.70;;;0.70;;
27857;SDS011;16852;51.446;6.528;2023-03-23T11:22:48;2.42;;;0.80;;
27857;SDS011;16852;51.446;6.528;2023-03-23T11:24:52;1.55;;;0.80;;
27857;SDS011;16852;51.446;6.528;2023-03-23T11:26:59;2.50;;;1.00;;
27857;SDS011;16852;51.446;6.528;2023-03-23T11:29:04;2.17;;;0.98;;
27857;SDS011;16852;51.446;6.528;2023-03-23T11:31:13;4.10;;;1.15;;
27857;SDS011;16852;51.446;6.528;2023-03-23T11:33:14;1.63;;;0.90;;
27857;SDS011;16852;51.446;6.528;2023-03-23T11:35:17;2.45;;;0.73;;
27857;SDS011;16852;51.446;6.528;2023-03-23T11:37:34;2.47;;;0.60;;
27857;SDS011;16852;51.446;6.528;2023-03-23T11:39:47;1.20;;;0.60;;
27857;SDS011;16852;51.446;6.528;2023-03-23T11:43:55;0.80;;;0.50;;
27857;SDS011;16852;51.446;6.528;2023-03-23T11:46:04;2.05;;;0.70;;
27857;SDS011;16852;51.446;6.528;2023-03-23T11:50:32;2.42;;;0.95;;
27857;SDS011;16852;51.446;6.528;2023-03-23T11:55:16;2.50;;;1.00;;
27857;SDS011;16852;51.446;6.528;2023-03-23T11:57:22;0.80;;;0.60;;
27857;SDS011;16852;51.446;6.528;2023-03-23T11:59:28;1.75;;;0.93;;
27857;SDS011;16852;51.446;6.528;2023-03-23T12:09:01;2.60;;;0.85;;
27857;SDS011;16852;51.446;6.528;2023-03-23T12:13:21;2.83;;;0.82;;
27857;SDS011;16852;51.446;6.528;2023-03-23T12:17:31;1.25;;;0.73;;
27857;SDS011;16852;51.446;6.528;2023-03-23T12:22:01;1.73;;;0.70;;
27857;SDS011;16852;51.446;6.528;2023-03-23T12:31:21;2.40;;;0.93;;
27857;SDS011;16852;51.446;6.528;2023-03-23T12:36:04;3.13;;;1.67;;
27857;SDS011;16852;51.446;6.528;2023-03-23T12:39:25;2.90;;;1.25;;
27857;SDS011;16852;51.446;6.528;2023-03-23T12:41:17;2.97;;;1.20;;
27857;SDS011;16852;51.446;6.528;2023-03-23T12:43:28;4.60;;;1.27;;
27857;SDS011;16852;51.446;6.528;2023-03-23T12:48:00;2.33;;;1.10;;
27857;SDS011;16852;51.446;6.528;2023-03-23T12:52:11;2.27;;;1.20;;
27857;SDS011;16852;51.446;6.528;2023-03-23T12:54:28;2.13;;;1.10;;
27857;SDS011;16852;51.446;6.528;2023-03-23T12:56:57;3.22;;;1.13;;
27857;SDS011;16852;51.446;6.528;2023-03-23T13:01:11;4.30;;;1.40;;
27857;SDS011;16852;51.446;6.528;2023-03-23T13:05:36;2.72;;;1.33;;
27857;SDS011;16852;51.446;6.528;2023-03-23T13:07:45;5.35;;;1.90;;
27857;SDS011;16852;51.446;6.528;2023-03-23T13:09:57;3.15;;;1.60;;
27857;SDS011;16852;51.446;6.528;2023-03-23T13:12:15;2.85;;;1.45;;
27857;SDS011;16852;51.446;6.528;2023-03-23T13:21:30;4.78;;;2.10;;
27857;SDS011;16852;51.446;6.528;2023-03-23T13:23:36;3.85;;;1.90;;
27857;SDS011;16852;51.446;6.528;2023-03-23T13:25:55;4.00;;;2.10;;
27857;SDS011;16852;51.446;6.528;2023-03-23T13:27:57;3.63;;;1.77;;
27857;SDS011;16852;51.446;6.528;2023-03-23T13:29:59;4.43;;;1.90;;
27857;SDS011;16852;51.446;6.528;2023-03-23T13:32:06;4.32;;;1.80;;
27857;SDS011;16852;51.446;6.528;2023-03-23T13:34:19;4.72;;;1.90;;
27857;SDS011;16852;51.446;6.528;2023-03-23T13:36:35;6.15;;;2.10;;
27857;SDS011;16852;51.446;6.528;2023-03-23T13:38:38;7.18;;;1.85;;
27857;SDS011;16852;51.446;6.528;2023-03-23T13:40:46;5.82;;;1.92;;
27857;SDS011;16852;51.446;6.528;2023-03-23T13:42:51;6.18;;;2.33;;
27857;SDS011;16852;51.446;6.528;2023-03-23T13:44:55;5.90;;;1.92;;
27857;SDS011;16852;51.446;6.528;2023-03-23T13:49:26;3.83;;;1.98;;
27857;SDS011;16852;51.446;6.528;2023-03-23T13:53:43;4.30;;;1.60;;
27857;SDS011;16852;51.446;6.528;2023-03-23T13:55:49;3.88;;;1.73;;
27857;SDS011;16852;51.446;6.528;2023-03-23T13:57:52;4.03;;;1.70;;
27857;SDS011;16852;51.446;6.528;2023-03-23T13:59:57;6.93;;;2.17;;